アデレード の空港の天気 - METARとTAF

アデレード空港 ( YPAD / ADL ) - オーストラリア 南オーストラリア州アデレード
飛行場実況気象(Metar)
観測時間11/27 19:00 ACDT (11/27 08:30 UTC)
風向・風速南南西 6m/s
視程10km以上
天気現象周辺でしゅう雨
少しの雲 雲底高度 610m
気温16℃
湿度72%
気圧1010hPa
METARYPAD 270830Z 21012KT 9999 VCSH FEW020 16/11 Q1010
過去の天気等 Google飛行場航空写真 Wunderground天気予報

過去48時間のMETAR

飛行場予報(TAF)
発表時間: 11/27 18:35 ACDT (11/27 08:05 UTC)
予報対象時間: 27日19時 ACDT ~ 28日22時 ACDT
風向・風速南 3m/s
視程10km以上
全天の4割程度の雲 雲底高度 910m
28日8時 ACDT から
風向・風速西南西 7m/s
視程10km以上
少しの雲 雲底高度 1070m
全天の8割程度の雲 雲底高度 1370m
TAF YPAD 270805Z 2709/2812 18006KT 9999 SCT030
FM272200 24014KT 9999 FEW035 BKN045